sensor_id;sensor_type;location;lat;lon;timestamp;temperature;humidity
47600;DHT22;33323;52.124;6.018;2022-10-12T00:02:07;5.50;99.90
47600;DHT22;33323;52.124;6.018;2022-10-12T00:04:34;5.50;99.90
47600;DHT22;33323;52.124;6.018;2022-10-12T00:07:01;5.50;99.90
47600;DHT22;33323;52.124;6.018;2022-10-12T00:09:28;5.60;99.90
47600;DHT22;33323;52.124;6.018;2022-10-12T00:11:55;5.70;99.90
47600;DHT22;33323;52.124;6.018;2022-10-12T00:14:22;5.60;99.90
47600;DHT22;33323;52.124;6.018;2022-10-12T00:16:49;5.50;99.90
47600;DHT22;33323;52.124;6.018;2022-10-12T00:19:16;5.40;99.90
47600;DHT22;33323;52.124;6.018;2022-10-12T00:21:45;5.40;99.90
47600;DHT22;33323;52.124;6.018;2022-10-12T00:24:11;5.50;99.90
47600;DHT22;33323;52.124;6.018;2022-10-12T00:26:38;5.60;99.90
47600;DHT22;33323;52.124;6.018;2022-10-12T00:29:05;5.60;99.90
47600;DHT22;33323;52.124;6.018;2022-10-12T00:31:32;5.60;99.90
47600;DHT22;33323;52.124;6.018;2022-10-12T00:34:01;5.40;99.90
47600;DHT22;33323;52.124;6.018;2022-10-12T00:36:31;5.50;99.90
47600;DHT22;33323;52.124;6.018;2022-10-12T00:39:00;5.50;99.90
47600;DHT22;33323;52.124;6.018;2022-10-12T00:41:32;5.50;99.90
47600;DHT22;33323;52.124;6.018;2022-10-12T00:44:01;5.30;99.90
47600;DHT22;33323;52.124;6.018;2022-10-12T00:46:32;5.10;99.90
47600;DHT22;33323;52.124;6.018;2022-10-12T00:49:11;5.30;99.90
47600;DHT22;33323;52.124;6.018;2022-10-12T00:51:44;5.30;99.90
47600;DHT22;33323;52.124;6.018;2022-10-12T00:54:18;5.40;99.90
47600;DHT22;33323;52.124;6.018;2022-10-12T00:56:51;5.30;99.90
47600;DHT22;33323;52.124;6.018;2022-10-12T00:59:30;5.40;99.90
47600;DHT22;33323;52.124;6.018;2022-10-12T01:01:58;5.30;99.90
47600;DHT22;33323;52.124;6.018;2022-10-12T01:04:25;5.20;99.90
47600;DHT22;33323;52.124;6.018;2022-10-12T01:06:52;5.20;99.90
47600;DHT22;33323;52.124;6.018;2022-10-12T01:09:20;5.30;99.90
47600;DHT22;33323;52.124;6.018;2022-10-12T01:11:47;5.40;99.90
47600;DHT22;33323;52.124;6.018;2022-10-12T01:14:15;5.20;99.90
47600;DHT22;33323;52.124;6.018;2022-10-12T01:34:46;5.00;99.90
47600;DHT22;33323;52.124;6.018;2022-10-12T01:39:59;4.90;99.90
47600;DHT22;33323;52.124;6.018;2022-10-12T01:42:38;4.90;99.90
47600;DHT22;33323;52.124;6.018;2022-10-12T01:45:15;4.90;99.90
47600;DHT22;33323;52.124;6.018;2022-10-12T01:47:47;5.00;99.90
47600;DHT22;33323;52.124;6.018;2022-10-12T01:50:19;5.00;99.90
47600;DHT22;33323;52.124;6.018;2022-10-12T01:56:11;4.90;99.90
47600;DHT22;33323;52.124;6.018;2022-10-12T02:01:56;4.70;99.90
47600;DHT22;33323;52.124;6.018;2022-10-12T02:04:34;4.80;99.90
47600;DHT22;33323;52.124;6.018;2022-10-12T02:07:11;4.80;99.90
47600;DHT22;33323;52.124;6.018;2022-10-12T02:09:43;4.90;99.90
47600;DHT22;33323;52.124;6.018;2022-10-12T02:12:15;4.80;99.90
47600;DHT22;33323;52.124;6.018;2022-10-12T02:14:47;4.80;99.90
47600;DHT22;33323;52.124;6.018;2022-10-12T02:17:20;4.80;99.90
47600;DHT22;33323;52.124;6.018;2022-10-12T02:19:53;5.00;99.90
47600;DHT22;33323;52.124;6.018;2022-10-12T02:22:28;4.80;99.90
47600;DHT22;33323;52.124;6.018;2022-10-12T02:25:03;4.80;99.90
47600;DHT22;33323;52.124;6.018;2022-10-12T02:27:33;4.80;99.90
47600;DHT22;33323;52.124;6.018;2022-10-12T02:30:03;4.70;99.90
47600;DHT22;33323;52.124;6.018;2022-10-12T02:35:06;4.70;99.90
47600;DHT22;33323;52.124;6.018;2022-10-12T02:38:18;4.70;99.90
47600;DHT22;33323;52.124;6.018;2022-10-12T02:41:22;4.80;99.90
47600;DHT22;33323;52.124;6.018;2022-10-12T02:43:57;4.80;99.90
47600;DHT22;33323;52.124;6.018;2022-10-12T02:46:28;4.70;99.90
47600;DHT22;33323;52.124;6.018;2022-10-12T02:48:57;4.70;99.90
47600;DHT22;33323;52.124;6.018;2022-10-12T02:51:26;4.70;99.90
47600;DHT22;33323;52.124;6.018;2022-10-12T02:53:55;4.80;99.90
47600;DHT22;33323;52.124;6.018;2022-10-12T02:56:22;4.80;99.90
47600;DHT22;33323;52.124;6.018;2022-10-12T02:58:49;4.70;99.90
47600;DHT22;33323;52.124;6.018;2022-10-12T03:01:16;5.40;99.90
47600;DHT22;33323;52.124;6.018;2022-10-12T03:03:44;5.60;99.90
47600;DHT22;33323;52.124;6.018;2022-10-12T03:06:12;5.40;99.90
47600;DHT22;33323;52.124;6.018;2022-10-12T03:08:39;5.30;99.90
47600;DHT22;33323;52.124;6.018;2022-10-12T03:11:08;5.10;99.90
47600;DHT22;33323;52.124;6.018;2022-10-12T03:13:38;5.00;99.90
47600;DHT22;33323;52.124;6.018;2022-10-12T03:16:07;4.90;99.90
47600;DHT22;33323;52.124;6.018;2022-10-12T03:18:36;4.90;99.90
47600;DHT22;33323;52.124;6.018;2022-10-12T03:21:04;4.90;99.90
47600;DHT22;33323;52.124;6.018;2022-10-12T03:23:31;4.80;99.90
47600;DHT22;33323;52.124;6.018;2022-10-12T03:25:58;4.70;99.90
47600;DHT22;33323;52.124;6.018;2022-10-12T03:28:25;4.70;99.90
47600;DHT22;33323;52.124;6.018;2022-10-12T03:30:52;4.80;99.90
47600;DHT22;33323;52.124;6.018;2022-10-12T03:33:19;4.70;99.90
47600;DHT22;33323;52.124;6.018;2022-10-12T03:35:47;4.60;99.90
47600;DHT22;33323;52.124;6.018;2022-10-12T03:38:14;4.50;99.90
47600;DHT22;33323;52.124;6.018;2022-10-12T03:40:42;4.50;99.90
47600;DHT22;33323;52.124;6.018;2022-10-12T03:43:10;4.40;99.90
47600;DHT22;33323;52.124;6.018;2022-10-12T03:45:38;4.40;99.90
47600;DHT22;33323;52.124;6.018;2022-10-12T03:48:05;4.40;99.90
47600;DHT22;33323;52.124;6.018;2022-10-12T03:50:33;4.40;99.90
47600;DHT22;33323;52.124;6.018;2022-10-12T03:53:03;4.30;99.90
47600;DHT22;33323;52.124;6.018;2022-10-12T03:55:31;4.20;99.90
47600;DHT22;33323;52.124;6.018;2022-10-12T03:57:58;4.20;99.90
47600;DHT22;33323;52.124;6.018;2022-10-12T04:00:25;4.10;99.90
47600;DHT22;33323;52.124;6.018;2022-10-12T04:02:53;4.10;99.90
47600;DHT22;33323;52.124;6.018;2022-10-12T04:05:20;4.00;99.90
47600;DHT22;33323;52.124;6.018;2022-10-12T04:07:47;4.10;99.90
47600;DHT22;33323;52.124;6.018;2022-10-12T04:10:14;4.10;99.90
47600;DHT22;33323;52.124;6.018;2022-10-12T04:12:41;4.10;99.90
47600;DHT22;33323;52.124;6.018;2022-10-12T04:15:08;4.00;99.90
47600;DHT22;33323;52.124;6.018;2022-10-12T04:17:37;3.90;99.90
47600;DHT22;33323;52.124;6.018;2022-10-12T04:20:05;3.90;99.90
47600;DHT22;33323;52.124;6.018;2022-10-12T04:22:32;3.80;99.90
47600;DHT22;33323;52.124;6.018;2022-10-12T04:24:59;3.80;99.90
47600;DHT22;33323;52.124;6.018;2022-10-12T04:27:27;3.80;99.90
47600;DHT22;33323;52.124;6.018;2022-10-12T04:29:53;3.90;99.90
47600;DHT22;33323;52.124;6.018;2022-10-12T04:32:20;3.90;99.90
47600;DHT22;33323;52.124;6.018;2022-10-12T04:34:47;3.70;99.90
47600;DHT22;33323;52.124;6.018;2022-10-12T04:37:14;3.50;99.90
47600;DHT22;33323;52.124;6.018;2022-10-12T04:39:41;3.60;99.90
47600;DHT22;33323;52.124;6.018;2022-10-12T04:42:08;3.50;99.90
47600;DHT22;33323;52.124;6.018;2022-10-12T04:44:35;3.40;99.90
47600;DHT22;33323;52.124;6.018;2022-10-12T04:47:02;3.40;99.90
47600;DHT22;33323;52.124;6.018;2022-10-12T04:49:29;3.40;99.90
47600;DHT22;33323;52.124;6.018;2022-10-12T04:51:56;3.40;99.90
47600;DHT22;33323;52.124;6.018;2022-10-12T04:54:23;3.40;99.90
47600;DHT22;33323;52.124;6.018;2022-10-12T04:56:50;3.40;99.90
47600;DHT22;33323;52.124;6.018;2022-10-12T04:59:17;3.30;99.90
47600;DHT22;33323;52.124;6.018;2022-10-12T05:01:44;3.30;99.90
47600;DHT22;33323;52.124;6.018;2022-10-12T05:04:11;3.30;99.90
47600;DHT22;33323;52.124;6.018;2022-10-12T05:06:38;3.40;99.90
47600;DHT22;33323;52.124;6.018;2022-10-12T05:09:05;3.30;99.90
47600;DHT22;33323;52.124;6.018;2022-10-12T05:11:32;3.20;99.90
47600;DHT22;33323;52.124;6.018;2022-10-12T05:13:59;3.30;99.90
47600;DHT22;33323;52.124;6.018;2022-10-12T05:16:26;3.30;99.90
47600;DHT22;33323;52.124;6.018;2022-10-12T05:18:53;3.20;99.90
47600;DHT22;33323;52.124;6.018;2022-10-12T05:21:20;3.10;99.90
47600;DHT22;33323;52.124;6.018;2022-10-12T05:23:50;3.10;99.90
47600;DHT22;33323;52.124;6.018;2022-10-12T05:26:18;2.90;99.90
47600;DHT22;33323;52.124;6.018;2022-10-12T05:28:45;2.80;99.90
47600;DHT22;33323;52.124;6.018;2022-10-12T05:31:12;2.90;99.90
47600;DHT22;33323;52.124;6.018;2022-10-12T05:33:39;2.90;99.90
47600;DHT22;33323;52.124;6.018;2022-10-12T05:36:07;2.90;99.90
47600;DHT22;33323;52.124;6.018;2022-10-12T05:38:34;3.00;99.90
47600;DHT22;33323;52.124;6.018;2022-10-12T05:41:01;3.00;99.90
47600;DHT22;33323;52.124;6.018;2022-10-12T05:43:28;2.90;99.90
47600;DHT22;33323;52.124;6.018;2022-10-12T05:45:55;3.00;99.90
47600;DHT22;33323;52.124;6.018;2022-10-12T05:48:22;3.00;99.90
47600;DHT22;33323;52.124;6.018;2022-10-12T05:50:53;3.10;99.90
47600;DHT22;33323;52.124;6.018;2022-10-12T05:53:21;2.90;99.90
47600;DHT22;33323;52.124;6.018;2022-10-12T05:55:58;2.80;99.90
47600;DHT22;33323;52.124;6.018;2022-10-12T05:58:27;3.00;99.90
47600;DHT22;33323;52.124;6.018;2022-10-12T06:01:04;3.00;99.90
47600;DHT22;33323;52.124;6.018;2022-10-12T06:03:32;3.00;99.90
47600;DHT22;33323;52.124;6.018;2022-10-12T06:06:01;2.90;99.90
47600;DHT22;33323;52.124;6.018;2022-10-12T06:08:30;2.90;99.90
47600;DHT22;33323;52.124;6.018;2022-10-12T06:10:57;3.00;99.90
47600;DHT22;33323;52.124;6.018;2022-10-12T06:13:24;3.10;99.90
47600;DHT22;33323;52.124;6.018;2022-10-12T06:15:52;3.20;99.90
47600;DHT22;33323;52.124;6.018;2022-10-12T06:18:19;3.20;99.90
47600;DHT22;33323;52.124;6.018;2022-10-12T06:20:47;3.20;99.90
47600;DHT22;33323;52.124;6.018;2022-10-12T06:23:39;3.40;99.90
47600;DHT22;33323;52.124;6.018;2022-10-12T06:26:06;3.50;99.90
47600;DHT22;33323;52.124;6.018;2022-10-12T06:28:33;3.60;99.90
47600;DHT22;33323;52.124;6.018;2022-10-12T06:31:00;3.70;99.90
47600;DHT22;33323;52.124;6.018;2022-10-12T06:33:27;3.70;99.90
47600;DHT22;33323;52.124;6.018;2022-10-12T06:35:54;3.60;99.90
47600;DHT22;33323;52.124;6.018;2022-10-12T06:38:22;3.70;99.90
47600;DHT22;33323;52.124;6.018;2022-10-12T06:40:49;3.80;99.90
47600;DHT22;33323;52.124;6.018;2022-10-12T06:43:16;3.90;99.90
47600;DHT22;33323;52.124;6.018;2022-10-12T06:45:43;4.10;99.90
47600;DHT22;33323;52.124;6.018;2022-10-12T06:48:10;4.20;99.90
47600;DHT22;33323;52.124;6.018;2022-10-12T06:50:45;4.30;99.90
47600;DHT22;33323;52.124;6.018;2022-10-12T06:53:14;4.40;99.90
47600;DHT22;33323;52.124;6.018;2022-10-12T06:55:41;4.40;99.90
47600;DHT22;33323;52.124;6.018;2022-10-12T06:58:08;4.40;99.90
47600;DHT22;33323;52.124;6.018;2022-10-12T07:00:36;4.40;99.90
47600;DHT22;33323;52.124;6.018;2022-10-12T07:03:03;4.40;99.90
47600;DHT22;33323;52.124;6.018;2022-10-12T07:05:30;4.40;99.90
47600;DHT22;33323;52.124;6.018;2022-10-12T07:07:57;4.50;99.90
47600;DHT22;33323;52.124;6.018;2022-10-12T07:10:24;4.50;99.90
47600;DHT22;33323;52.124;6.018;2022-10-12T07:12:51;4.60;99.90
47600;DHT22;33323;52.124;6.018;2022-10-12T07:15:18;4.70;99.90
47600;DHT22;33323;52.124;6.018;2022-10-12T07:17:45;4.80;99.90
47600;DHT22;33323;52.124;6.018;2022-10-12T07:20:12;4.90;99.90
47600;DHT22;33323;52.124;6.018;2022-10-12T07:22:39;5.00;99.90
47600;DHT22;33323;52.124;6.018;2022-10-12T07:25:06;5.10;99.90
47600;DHT22;33323;52.124;6.018;2022-10-12T07:27:33;5.20;99.90
47600;DHT22;33323;52.124;6.018;2022-10-12T07:30:01;5.30;99.90
47600;DHT22;33323;52.124;6.018;2022-10-12T07:32:28;5.40;99.90
47600;DHT22;33323;52.124;6.018;2022-10-12T07:34:55;5.50;99.90
47600;DHT22;33323;52.124;6.018;2022-10-12T07:37:22;5.50;99.90
47600;DHT22;33323;52.124;6.018;2022-10-12T07:39:49;5.60;99.90
47600;DHT22;33323;52.124;6.018;2022-10-12T07:42:23;5.80;99.90
47600;DHT22;33323;52.124;6.018;2022-10-12T07:44:50;5.90;99.90
47600;DHT22;33323;52.124;6.018;2022-10-12T07:47:17;6.00;99.90
47600;DHT22;33323;52.124;6.018;2022-10-12T07:49:45;6.10;99.90
47600;DHT22;33323;52.124;6.018;2022-10-12T07:52:12;6.40;99.90
47600;DHT22;33323;52.124;6.018;2022-10-12T07:54:39;6.50;99.90
47600;DHT22;33323;52.124;6.018;2022-10-12T07:57:06;6.90;99.90
47600;DHT22;33323;52.124;6.018;2022-10-12T07:59:34;7.50;99.90
47600;DHT22;33323;52.124;6.018;2022-10-12T08:02:00;8.40;99.90
47600;DHT22;33323;52.124;6.018;2022-10-12T08:04:27;9.10;99.90
47600;DHT22;33323;52.124;6.018;2022-10-12T08:06:54;9.80;99.30
47600;DHT22;33323;52.124;6.018;2022-10-12T08:09:21;10.50;98.00
47600;DHT22;33323;52.124;6.018;2022-10-12T08:11:48;11.00;96.30
47600;DHT22;33323;52.124;6.018;2022-10-12T08:14:15;10.90;96.00
47600;DHT22;33323;52.124;6.018;2022-10-12T08:16:43;10.50;96.30
47600;DHT22;33323;52.124;6.018;2022-10-12T08:19:10;10.30;98.10
47600;DHT22;33323;52.124;6.018;2022-10-12T08:21:38;10.50;97.20
47600;DHT22;33323;52.124;6.018;2022-10-12T08:24:05;10.50;98.30
47600;DHT22;33323;52.124;6.018;2022-10-12T08:26:32;10.80;98.30
47600;DHT22;33323;52.124;6.018;2022-10-12T08:29:01;11.40;96.90
47600;DHT22;33323;52.124;6.018;2022-10-12T08:31:28;11.80;96.80
47600;DHT22;33323;52.124;6.018;2022-10-12T08:33:56;12.10;94.80
47600;DHT22;33323;52.124;6.018;2022-10-12T08:36:24;11.80;94.30
47600;DHT22;33323;52.124;6.018;2022-10-12T08:38:51;11.80;96.90
47600;DHT22;33323;52.124;6.018;2022-10-12T08:47:08;12.50;95.70
47600;DHT22;33323;52.124;6.018;2022-10-12T08:49:40;12.80;94.90
47600;DHT22;33323;52.124;6.018;2022-10-12T08:52:36;12.80;95.20
47600;DHT22;33323;52.124;6.018;2022-10-12T08:58:16;12.80;94.00
47600;DHT22;33323;52.124;6.018;2022-10-12T09:01:06;11.90;96.80
47600;DHT22;33323;52.124;6.018;2022-10-12T09:07:19;11.40;97.60
47600;DHT22;33323;52.124;6.018;2022-10-12T09:15:31;12.20;96.80
47600;DHT22;33323;52.124;6.018;2022-10-12T09:18:00;12.40;96.20
47600;DHT22;33323;52.124;6.018;2022-10-12T09:23:34;13.20;95.60
47600;DHT22;33323;52.124;6.018;2022-10-12T09:26:17;13.60;94.70
47600;DHT22;33323;52.124;6.018;2022-10-12T09:28:52;13.70;94.30
47600;DHT22;33323;52.124;6.018;2022-10-12T09:34:23;13.90;92.80
47600;DHT22;33323;52.124;6.018;2022-10-12T09:36:50;14.10;93.80
47600;DHT22;33323;52.124;6.018;2022-10-12T09:39:19;14.30;93.40
47600;DHT22;33323;52.124;6.018;2022-10-12T09:41:55;14.40;92.00
47600;DHT22;33323;52.124;6.018;2022-10-12T09:44:36;14.70;92.20
47600;DHT22;33323;52.124;6.018;2022-10-12T09:50:02;14.30;91.20
47600;DHT22;33323;52.124;6.018;2022-10-12T09:52:41;14.20;93.80
47600;DHT22;33323;52.124;6.018;2022-10-12T09:57:42;14.70;92.30
47600;DHT22;33323;52.124;6.018;2022-10-12T10:00:32;14.80;90.70
47600;DHT22;33323;52.124;6.018;2022-10-12T10:03:02;14.90;89.30
47600;DHT22;33323;52.124;6.018;2022-10-12T10:05:34;14.70;88.90
47600;DHT22;33323;52.124;6.018;2022-10-12T10:08:22;14.90;92.90
47600;DHT22;33323;52.124;6.018;2022-10-12T10:10:51;15.00;90.30
47600;DHT22;33323;52.124;6.018;2022-10-12T10:13:20;14.80;90.20
47600;DHT22;33323;52.124;6.018;2022-10-12T10:18:38;14.40;91.70
47600;DHT22;33323;52.124;6.018;2022-10-12T10:21:11;14.90;91.60
47600;DHT22;33323;52.124;6.018;2022-10-12T10:26:23;15.40;87.20
47600;DHT22;33323;52.124;6.018;2022-10-12T10:29:31;15.50;85.70
47600;DHT22;33323;52.124;6.018;2022-10-12T10:32:19;15.50;80.50
47600;DHT22;33323;52.124;6.018;2022-10-12T10:35:02;15.60;86.60
47600;DHT22;33323;52.124;6.018;2022-10-12T10:37:56;15.60;84.30
47600;DHT22;33323;52.124;6.018;2022-10-12T10:40:27;15.50;87.90
47600;DHT22;33323;52.124;6.018;2022-10-12T10:43:01;15.50;86.90
47600;DHT22;33323;52.124;6.018;2022-10-12T10:45:43;15.50;85.70
47600;DHT22;33323;52.124;6.018;2022-10-12T10:48:17;15.80;86.20
47600;DHT22;33323;52.124;6.018;2022-10-12T10:50:58;16.00;81.50
47600;DHT22;33323;52.124;6.018;2022-10-12T10:53:42;16.00;82.00
47600;DHT22;33323;52.124;6.018;2022-10-12T10:58:54;16.00;81.00
47600;DHT22;33323;52.124;6.018;2022-10-12T11:01:23;15.80;76.90
47600;DHT22;33323;52.124;6.018;2022-10-12T11:04:00;15.90;83.60
47600;DHT22;33323;52.124;6.018;2022-10-12T11:09:32;15.70;76.70
47600;DHT22;33323;52.124;6.018;2022-10-12T11:17:46;15.20;82.90
47600;DHT22;33323;52.124;6.018;2022-10-12T11:20:45;15.30;77.40
47600;DHT22;33323;52.124;6.018;2022-10-12T11:26:26;14.80;82.40
47600;DHT22;33323;52.124;6.018;2022-10-12T11:28:57;14.70;78.20
47600;DHT22;33323;52.124;6.018;2022-10-12T11:31:30;14.80;79.80
47600;DHT22;33323;52.124;6.018;2022-10-12T11:34:00;15.00;76.10
47600;DHT22;33323;52.124;6.018;2022-10-12T11:36:39;14.90;79.60
47600;DHT22;33323;52.124;6.018;2022-10-12T11:39:37;14.90;82.50
47600;DHT22;33323;52.124;6.018;2022-10-12T11:42:13;15.40;84.30
47600;DHT22;33323;52.124;6.018;2022-10-12T11:44:49;15.40;72.60
47600;DHT22;33323;52.124;6.018;2022-10-12T11:47:35;15.20;78.70
47600;DHT22;33323;52.124;6.018;2022-10-12T11:53:00;15.70;74.10
47600;DHT22;33323;52.124;6.018;2022-10-12T11:58:22;15.70;74.80
47600;DHT22;33323;52.124;6.018;2022-10-12T12:04:21;15.40;74.00
47600;DHT22;33323;52.124;6.018;2022-10-12T12:21:09;15.50;72.40
47600;DHT22;33323;52.124;6.018;2022-10-12T12:23:39;15.20;74.90
47600;DHT22;33323;52.124;6.018;2022-10-12T12:28:47;15.30;75.30
47600;DHT22;33323;52.124;6.018;2022-10-12T12:34:04;15.30;81.80
47600;DHT22;33323;52.124;6.018;2022-10-12T12:36:34;15.00;79.00
47600;DHT22;33323;52.124;6.018;2022-10-12T12:39:06;15.00;81.40
47600;DHT22;33323;52.124;6.018;2022-10-12T12:41:50;15.10;87.50
47600;DHT22;33323;52.124;6.018;2022-10-12T12:44:44;15.10;78.50
47600;DHT22;33323;52.124;6.018;2022-10-12T12:53:25;14.90;77.40
47600;DHT22;33323;52.124;6.018;2022-10-12T12:56:06;14.70;84.70
47600;DHT22;33323;52.124;6.018;2022-10-12T13:01:54;14.50;80.90
47600;DHT22;33323;52.124;6.018;2022-10-12T13:07:25;14.50;82.50
47600;DHT22;33323;52.124;6.018;2022-10-12T13:16:01;14.60;82.90
47600;DHT22;33323;52.124;6.018;2022-10-12T13:18:54;14.60;86.60
47600;DHT22;33323;52.124;6.018;2022-10-12T13:21:30;14.60;89.30
47600;DHT22;33323;52.124;6.018;2022-10-12T13:24:23;14.70;87.80
47600;DHT22;33323;52.124;6.018;2022-10-12T13:26:57;14.70;89.60
47600;DHT22;33323;52.124;6.018;2022-10-12T13:32:34;14.70;86.80
47600;DHT22;33323;52.124;6.018;2022-10-12T13:35:16;14.90;83.90
47600;DHT22;33323;52.124;6.018;2022-10-12T13:38:03;15.10;84.70
47600;DHT22;33323;52.124;6.018;2022-10-12T13:40:41;15.30;84.00
47600;DHT22;33323;52.124;6.018;2022-10-12T13:45:59;15.00;82.00
47600;DHT22;33323;52.124;6.018;2022-10-12T13:48:27;15.10;80.40
47600;DHT22;33323;52.124;6.018;2022-10-12T13:51:22;15.20;86.50
47600;DHT22;33323;52.124;6.018;2022-10-12T13:53:50;15.10;83.00
47600;DHT22;33323;52.124;6.018;2022-10-12T13:56:22;14.90;83.50
47600;DHT22;33323;52.124;6.018;2022-10-12T13:58:55;14.80;80.70
47600;DHT22;33323;52.124;6.018;2022-10-12T14:01:23;14.70;87.50
47600;DHT22;33323;52.124;6.018;2022-10-12T14:03:51;14.60;83.70
47600;DHT22;33323;52.124;6.018;2022-10-12T14:06:32;14.60;87.60
47600;DHT22;33323;52.124;6.018;2022-10-12T14:09:09;14.50;88.90
47600;DHT22;33323;52.124;6.018;2022-10-12T14:11:40;14.40;89.40
47600;DHT22;33323;52.124;6.018;2022-10-12T14:14:23;14.40;88.40
47600;DHT22;33323;52.124;6.018;2022-10-12T14:16:54;14.60;86.30
47600;DHT22;33323;52.124;6.018;2022-10-12T14:19:35;14.60;88.30
47600;DHT22;33323;52.124;6.018;2022-10-12T14:22:31;14.70;88.90
47600;DHT22;33323;52.124;6.018;2022-10-12T14:25:10;14.70;90.00
47600;DHT22;33323;52.124;6.018;2022-10-12T14:27:45;14.70;85.90
47600;DHT22;33323;52.124;6.018;2022-10-12T14:30:24;14.80;88.00
47600;DHT22;33323;52.124;6.018;2022-10-12T14:33:11;14.80;88.00
47600;DHT22;33323;52.124;6.018;2022-10-12T14:35:48;14.90;89.30
47600;DHT22;33323;52.124;6.018;2022-10-12T14:38:43;14.90;87.70
47600;DHT22;33323;52.124;6.018;2022-10-12T14:41:31;14.90;84.40
47600;DHT22;33323;52.124;6.018;2022-10-12T14:44:15;14.90;82.40
47600;DHT22;33323;52.124;6.018;2022-10-12T14:49:43;14.60;84.60
47600;DHT22;33323;52.124;6.018;2022-10-12T14:52:41;14.40;86.30
47600;DHT22;33323;52.124;6.018;2022-10-12T14:55:18;14.40;87.80
47600;DHT22;33323;52.124;6.018;2022-10-12T14:57:47;14.20;89.70
47600;DHT22;33323;52.124;6.018;2022-10-12T15:00:16;14.10;89.20
47600;DHT22;33323;52.124;6.018;2022-10-12T15:02:46;14.10;90.00
47600;DHT22;33323;52.124;6.018;2022-10-12T15:05:15;14.00;90.40
47600;DHT22;33323;52.124;6.018;2022-10-12T15:07:47;14.10;90.40
47600;DHT22;33323;52.124;6.018;2022-10-12T15:10:16;14.20;90.70
47600;DHT22;33323;52.124;6.018;2022-10-12T15:12:46;14.20;90.90
47600;DHT22;33323;52.124;6.018;2022-10-12T15:15:39;14.30;90.90
47600;DHT22;33323;52.124;6.018;2022-10-12T15:18:08;14.40;90.50
47600;DHT22;33323;52.124;6.018;2022-10-12T15:20:36;14.40;91.70
47600;DHT22;33323;52.124;6.018;2022-10-12T15:23:04;14.40;90.20
47600;DHT22;33323;52.124;6.018;2022-10-12T15:28:02;14.40;91.10
47600;DHT22;33323;52.124;6.018;2022-10-12T15:30:30;14.30;91.70
47600;DHT22;33323;52.124;6.018;2022-10-12T15:32:59;14.20;90.70
47600;DHT22;33323;52.124;6.018;2022-10-12T15:35:27;14.20;90.70
47600;DHT22;33323;52.124;6.018;2022-10-12T15:37:56;14.20;91.00
47600;DHT22;33323;52.124;6.018;2022-10-12T15:40:23;14.10;89.80
47600;DHT22;33323;52.124;6.018;2022-10-12T15:42:53;14.10;91.80
47600;DHT22;33323;52.124;6.018;2022-10-12T15:45:23;14.10;92.30
47600;DHT22;33323;52.124;6.018;2022-10-12T15:47:57;14.10;91.90
47600;DHT22;33323;52.124;6.018;2022-10-12T15:50:27;14.10;92.00
47600;DHT22;33323;52.124;6.018;2022-10-12T15:52:55;14.20;91.60
47600;DHT22;33323;52.124;6.018;2022-10-12T15:55:26;14.20;91.20
47600;DHT22;33323;52.124;6.018;2022-10-12T15:57:55;14.20;91.80
47600;DHT22;33323;52.124;6.018;2022-10-12T16:00:25;14.10;91.80
47600;DHT22;33323;52.124;6.018;2022-10-12T16:02:54;14.10;92.00
47600;DHT22;33323;52.124;6.018;2022-10-12T16:08:00;14.00;92.80
47600;DHT22;33323;52.124;6.018;2022-10-12T16:10:33;14.00;92.80
47600;DHT22;33323;52.124;6.018;2022-10-12T16:13:04;14.00;93.70
47600;DHT22;33323;52.124;6.018;2022-10-12T16:15:34;13.90;93.20
47600;DHT22;33323;52.124;6.018;2022-10-12T16:18:03;13.90;93.30
47600;DHT22;33323;52.124;6.018;2022-10-12T16:20:33;13.80;93.60
47600;DHT22;33323;52.124;6.018;2022-10-12T16:23:04;13.80;93.80
47600;DHT22;33323;52.124;6.018;2022-10-12T16:25:33;13.80;93.90
47600;DHT22;33323;52.124;6.018;2022-10-12T16:28:00;13.70;93.80
47600;DHT22;33323;52.124;6.018;2022-10-12T16:30:27;13.60;94.30
47600;DHT22;33323;52.124;6.018;2022-10-12T16:32:54;13.50;95.00
47600;DHT22;33323;52.124;6.018;2022-10-12T16:35:21;13.50;95.40
47600;DHT22;33323;52.124;6.018;2022-10-12T16:37:48;13.20;96.00
47600;DHT22;33323;52.124;6.018;2022-10-12T16:40:16;13.10;96.70
47600;DHT22;33323;52.124;6.018;2022-10-12T16:42:43;12.80;97.10
47600;DHT22;33323;52.124;6.018;2022-10-12T16:45:10;12.80;97.50
47600;DHT22;33323;52.124;6.018;2022-10-12T16:47:38;12.60;97.70
47600;DHT22;33323;52.124;6.018;2022-10-12T16:50:08;12.50;98.30
47600;DHT22;33323;52.124;6.018;2022-10-12T16:52:36;12.30;99.00
47600;DHT22;33323;52.124;6.018;2022-10-12T16:55:04;12.20;99.50
47600;DHT22;33323;52.124;6.018;2022-10-12T16:57:31;12.10;99.70
47600;DHT22;33323;52.124;6.018;2022-10-12T16:59:59;12.00;99.90
47600;DHT22;33323;52.124;6.018;2022-10-12T17:02:26;12.10;99.80
47600;DHT22;33323;52.124;6.018;2022-10-12T17:04:53;12.10;99.90
47600;DHT22;33323;52.124;6.018;2022-10-12T17:07:20;12.00;99.90
47600;DHT22;33323;52.124;6.018;2022-10-12T17:09:47;12.10;99.90
47600;DHT22;33323;52.124;6.018;2022-10-12T17:12:14;11.90;99.90
47600;DHT22;33323;52.124;6.018;2022-10-12T17:14:42;11.70;99.90
47600;DHT22;33323;52.124;6.018;2022-10-12T17:17:09;11.70;99.90
47600;DHT22;33323;52.124;6.018;2022-10-12T17:19:36;11.90;99.90
47600;DHT22;33323;52.124;6.018;2022-10-12T17:22:07;12.00;99.90
47600;DHT22;33323;52.124;6.018;2022-10-12T17:24:37;12.10;99.70
47600;DHT22;33323;52.124;6.018;2022-10-12T17:27:06;12.00;98.90
47600;DHT22;33323;52.124;6.018;2022-10-12T17:29:35;11.80;99.10
47600;DHT22;33323;52.124;6.018;2022-10-12T17:32:03;11.60;99.90
47600;DHT22;33323;52.124;6.018;2022-10-12T17:34:36;11.30;99.90
47600;DHT22;33323;52.124;6.018;2022-10-12T17:37:05;11.00;99.90
47600;DHT22;33323;52.124;6.018;2022-10-12T17:39:36;10.90;99.90
47600;DHT22;33323;52.124;6.018;2022-10-12T17:42:09;10.80;99.90
47600;DHT22;33323;52.124;6.018;2022-10-12T17:44:36;10.80;99.90
47600;DHT22;33323;52.124;6.018;2022-10-12T17:47:03;10.80;99.90
47600;DHT22;33323;52.124;6.018;2022-10-12T17:49:30;10.60;99.90
47600;DHT22;33323;52.124;6.018;2022-10-12T17:51:57;10.50;99.90
47600;DHT22;33323;52.124;6.018;2022-10-12T17:54:25;10.40;99.90
47600;DHT22;33323;52.124;6.018;2022-10-12T17:56:56;10.40;99.90
47600;DHT22;33323;52.124;6.018;2022-10-12T17:59:24;10.40;99.90
47600;DHT22;33323;52.124;6.018;2022-10-12T18:01:52;10.50;99.90
47600;DHT22;33323;52.124;6.018;2022-10-12T18:04:19;10.40;99.90
47600;DHT22;33323;52.124;6.018;2022-10-12T18:06:47;10.00;99.90
47600;DHT22;33323;52.124;6.018;2022-10-12T18:09:14;9.90;99.90
47600;DHT22;33323;52.124;6.018;2022-10-12T18:11:41;9.90;99.90
47600;DHT22;33323;52.124;6.018;2022-10-12T18:14:10;10.00;99.90
47600;DHT22;33323;52.124;6.018;2022-10-12T18:16:37;10.00;99.90
47600;DHT22;33323;52.124;6.018;2022-10-12T18:19:05;9.90;99.90
47600;DHT22;33323;52.124;6.018;2022-10-12T18:21:35;9.80;99.90
47600;DHT22;33323;52.124;6.018;2022-10-12T18:24:05;9.50;99.90